Time;durP1;ratioP1;P1;durP2;ratioP2;P2;SDS_P1;SDS_P2;PMS_P1;PMS_P2;Temp;Humidity;BMP_temperature;BMP_pressure;BME280_temperature;BME280_humidity;BME280_pressure;Samples;Min_cycle;Max_cycle;Signal;HPM_P1;HPM_P2
2023/07/11 00:01:12;;;;;;;2.20;2.20;;;;;;;20.20;71.07;97134.25;4985232;28;20058;-62
2023/07/11 00:03:38;;;;;;;2.13;2.13;;;;;;;20.24;70.84;97118.06;4985590;28;20501;-63
2023/07/11 00:06:09;;;;;;;2.03;2.03;;;;;;;20.47;69.91;97143.34;4984113;28;20054;-62
2023/07/11 00:08:36;;;;;;;2.08;2.08;;;;;;;20.34;70.57;97151.66;4985011;28;20054;-62
2023/07/11 00:11:07;;;;;;;2.17;2.17;;;;;;;20.56;70.51;97163.28;4985180;28;20153;-63
2023/07/11 00:13:34;;;;;;;2.00;2.00;;;;;;;20.59;70.54;97177.28;4985345;28;20054;-63
2023/07/11 00:16:07;;;;;;;1.98;1.98;;;;;;;20.47;71.28;97177.13;4984650;28;20525;-63
2023/07/11 00:18:34;;;;;;;;;;;;;;;20.43;71.17;97170.75;4985689;28;20046;-65
2023/07/11 00:21:02;;;;;;;1.80;1.80;;;;;;;20.27;71.63;97167.84;4985093;28;19925;-62
2023/07/11 00:23:29;;;;;;;2.05;2.05;;;;;;;20.18;71.78;97147.94;4985323;28;20058;-63
2023/07/11 00:25:56;;;;;;;2.20;2.20;;;;;;;19.79;72.58;97108.47;4984836;28;20148;-62
2023/07/11 00:28:22;;;;;;;2.00;2.00;;;;;;;19.75;75.85;97164.75;4985052;28;20490;-62
2023/07/11 00:30:50;;;;;;;2.00;2.00;;;;;;;18.53;79.15;97075.53;4639384;28;10000922;-61
2023/07/11 00:33:16;;;;;;;2.00;2.00;;;;;;;19.38;78.51;97171.38;4985121;28;20050;-64
2023/07/11 00:35:45;;;;;;;2.10;2.10;;;;;;;19.55;77.78;97173.09;4983261;28;20459;-62
2023/07/11 00:38:14;;;;;;;2.00;2.00;;;;;;;19.40;77.24;97131.59;4984530;28;20054;-65
2023/07/11 00:40:49;;;;;;;1.90;1.90;;;;;;;19.72;76.24;97159.19;4983142;28;20054;-64
2023/07/11 00:43:19;;;;;;;2.10;2.10;;;;;;;19.71;75.70;97169.66;4983555;28;20058;-63
2023/07/11 00:46:01;;;;;;;2.13;2.13;;;;;;;19.50;77.97;97168.00;4984135;28;20050;-63
2023/07/11 00:48:30;;;;;;;2.13;2.13;;;;;;;19.28;77.98;97113.31;4983309;28;20480;-62
2023/07/11 00:50:58;;;;;;;2.10;2.10;;;;;;;19.66;77.80;97146.84;4984087;28;20133;-65
2023/07/11 00:53:27;;;;;;;2.28;2.28;;;;;;;19.64;77.53;97138.84;4984404;28;20498;-64
2023/07/11 00:55:57;;;;;;;1.90;1.90;;;;;;;19.67;77.64;97148.41;4983281;28;20066;-65
2023/07/11 00:58:25;;;;;;;1.90;1.90;;;;;;;19.58;77.22;97138.53;4983423;28;20078;-64
2023/07/11 01:00:52;;;;;;;2.15;2.15;;;;;;;19.74;77.41;97157.56;4979467;28;20150;-65
2023/07/11 01:03:22;;;;;;;1.98;1.98;;;;;;;19.74;77.36;97157.56;4965472;28;20558;-62
2023/07/11 01:05:49;;;;;;;2.00;2.00;;;;;;;19.33;78.19;97117.69;4965289;28;20047;-62
2023/07/11 01:08:16;;;;;;;2.22;2.22;;;;;;;19.50;78.11;97137.06;4980319;28;20066;-62
2023/07/11 01:10:42;;;;;;;2.10;2.10;;;;;;;19.34;78.77;97106.03;4964980;28;20054;-63
2023/07/11 01:13:09;;;;;;;2.05;2.05;;;;;;;19.57;79.00;97138.16;4980039;28;20577;-62
2023/07/11 01:15:36;;;;;;;2.10;2.10;;;;;;;19.67;78.24;97146.41;4964998;28;20058;-62
2023/07/11 01:18:02;;;;;;;2.03;2.03;;;;;;;19.28;78.20;97090.84;4963943;28;20133;-62
2023/07/11 01:20:29;;;;;;;2.00;2.00;;;;;;;19.57;77.55;97116.47;4983561;28;20418;-63
2023/07/11 01:22:57;;;;;;;2.05;2.05;;;;;;;19.76;77.17;97143.06;4984186;28;20047;-62
2023/07/11 01:25:23;;;;;;;1.95;1.95;;;;;;;19.23;80.04;97143.91;4983218;28;20066;-62
2023/07/11 01:27:50;;;;;;;2.20;2.20;;;;;;;19.42;79.49;97135.59;4982895;28;20130;-62
2023/07/11 01:30:20;;;;;;;2.00;2.00;;;;;;;18.87;82.13;97135.22;4984472;28;20425;-62
2023/07/11 01:32:48;;;;;;;2.03;2.03;;;;;;;19.14;81.19;97146.44;4984169;28;20538;-65
2023/07/11 01:35:15;;;;;;;1.95;1.95;;;;;;;18.96;81.09;97090.56;4983833;28;20062;-63
2023/07/11 01:37:42;;;;;;;2.13;2.13;;;;;;;19.04;81.60;97124.94;4984407;28;20433;-63
2023/07/11 01:40:09;;;;;;;2.00;2.00;;;;;;;19.14;81.56;97093.09;4982511;28;20054;-64
2023/07/11 01:42:36;;;;;;;2.10;2.10;;;;;;;19.40;81.00;97126.78;4984255;28;20050;-65
2023/07/11 01:45:03;;;;;;;1.90;1.90;;;;;;;19.53;79.48;97130.59;4983621;28;20054;-63
2023/07/11 01:47:30;;;;;;;2.00;2.00;;;;;;;18.84;84.01;97130.41;4983882;28;20445;-62
2023/07/11 01:49:57;;;;;;;1.77;1.77;;;;;;;18.65;83.19;97108.63;4983912;28;20130;-62
2023/07/11 01:52:24;;;;;;;2.00;2.00;;;;;;;18.52;83.50;97075.94;4984292;28;20057;-62
2023/07/11 01:54:51;;;;;;;1.92;1.92;;;;;;;18.92;83.12;97112.25;4982477;28;20050;-62
2023/07/11 01:57:18;;;;;;;1.88;1.88;;;;;;;18.79;82.73;97091.63;4982836;28;20081;-62
2023/07/11 01:59:45;;;;;;;1.90;1.90;;;;;;;19.12;82.42;97118.78;4982859;28;20509;-62
2023/07/11 02:02:12;;;;;;;1.92;1.92;;;;;;;18.57;81.74;97028.59;4984036;28;20058;-63
2023/07/11 02:04:39;;;;;;;1.95;1.95;;;;;;;19.37;80.84;97122.03;4983055;28;20057;-63
2023/07/11 02:07:07;;;;;;;2.00;2.00;;;;;;;19.33;80.44;97115.66;4986202;28;20054;-61
2023/07/11 02:09:34;;;;;;;1.90;1.90;;;;;;;19.29;79.44;97098.06;4987722;28;20213;-63
2023/07/11 02:12:01;;;;;;;2.33;2.30;;;;;;;19.67;78.79;97117.50;4985989;28;20486;-62
2023/07/11 02:14:28;;;;;;;2.13;2.13;;;;;;;18.24;78.30;96886.38;4987275;28;20537;-62
2023/07/11 02:16:55;;;;;;;1.80;1.80;;;;;;;19.33;78.84;97076.31;4987455;28;20060;-62
2023/07/11 02:19:23;;;;;;;2.20;2.20;;;;;;;19.65;78.39;97114.34;4985649;28;20065;-63
2023/07/11 02:21:50;;;;;;;2.03;2.03;;;;;;;19.66;78.78;97127.16;4987012;28;20054;-62
2023/07/11 02:24:18;;;;;;;2.25;2.25;;;;;;;19.79;78.02;97136.59;4987295;28;20054;-62
2023/07/11 02:26:46;;;;;;;2.25;2.25;;;;;;;19.13;81.67;97145.66;4985617;28;20525;-63
2023/07/11 02:29:13;;;;;;;2.22;2.22;;;;;;;19.19;82.23;97132.72;4986968;28;20046;-62
2023/07/11 02:31:40;;;;;;;2.03;2.03;;;;;;;19.18;81.50;97097.44;4987241;28;20057;-64
2023/07/11 02:34:07;;;;;;;2.10;2.10;;;;;;;19.42;79.99;97112.31;4985863;28;20066;-62
2023/07/11 02:36:34;;;;;;;2.10;2.10;;;;;;;19.51;79.87;97116.16;4986463;28;20465;-62
2023/07/11 02:39:01;;;;;;;2.20;2.20;;;;;;;19.33;79.93;97103.66;4986809;28;20062;-64
2023/07/11 02:41:28;;;;;;;1.90;1.90;;;;;;;19.29;79.96;97092.47;4986492;28;20050;-62
2023/07/11 02:43:56;;;;;;;2.08;2.08;;;;;;;19.50;79.62;97106.16;4986434;28;20065;-62
2023/07/11 02:46:22;;;;;;;2.00;2.00;;;;;;;19.64;78.96;97112.75;4985404;28;20105;-62
2023/07/11 02:48:49;;;;;;;1.95;1.95;;;;;;;19.27;78.43;97069.59;4987257;28;20065;-62
2023/07/11 02:51:17;;;;;;;2.00;2.00;;;;;;;19.07;79.50;97070.72;4986641;28;20069;-64
2023/07/11 02:53:44;;;;;;;2.10;2.10;;;;;;;19.50;79.91;97103.34;4985578;28;20063;-65
2023/07/11 02:56:11;;;;;;;2.03;2.03;;;;;;;19.06;79.79;97044.66;4986279;28;20137;-62
2023/07/11 02:58:37;;;;;;;2.08;2.08;;;;;;;19.62;79.51;97120.81;4986907;28;20520;-63
2023/07/11 03:01:04;;;;;;;2.00;2.00;;;;;;;19.68;78.26;97091.78;4986427;28;20085;-62
2023/07/11 03:03:31;;;;;;;1.67;1.67;;;;;;;19.12;79.88;97089.91;4986493;28;20105;-63
2023/07/11 03:05:58;;;;;;;2.17;2.17;;;;;;;19.57;79.10;97129.75;4986195;28;20496;-65
2023/07/11 03:08:25;;;;;;;2.00;2.00;;;;;;;19.34;78.60;97069.50;4986671;28;20077;-62
2023/07/11 03:10:51;;;;;;;2.30;2.25;;;;;;;19.21;78.11;97040.41;4986669;28;20050;-62
2023/07/11 03:13:18;;;;;;;2.00;2.00;;;;;;;19.87;77.98;97132.44;4985012;28;20054;-63
2023/07/11 03:15:45;;;;;;;2.13;2.13;;;;;;;19.24;78.37;97038.75;4986772;28;20180;-65
2023/07/11 03:18:13;;;;;;;2.20;2.20;;;;;;;19.91;77.69;97117.06;4984655;28;20062;-62
2023/07/11 03:20:42;;;;;;;2.08;2.08;;;;;;;19.59;76.64;97060.63;4966700;28;20051;-62
2023/07/11 03:23:11;;;;;;;2.30;2.30;;;;;;;19.94;77.41;97132.28;4966646;28;20649;-62
2023/07/11 03:25:38;;;;;;;2.00;2.00;;;;;;;20.06;77.02;97134.50;4966865;28;20077;-65
2023/07/11 03:28:05;;;;;;;2.25;2.25;;;;;;;20.00;77.28;97141.81;4966731;28;20561;-64
2023/07/11 03:30:34;;;;;;;2.10;2.10;;;;;;;20.16;76.77;97122.25;4966224;28;20157;-62
2023/07/11 03:33:02;;;;;;;1.80;1.80;;;;;;;20.30;75.51;97121.97;4966622;28;20050;-64
2023/07/11 03:35:28;;;;;;;2.30;2.30;;;;;;;20.10;75.44;97068.50;4966627;28;20050;-62
2023/07/11 03:37:55;;;;;;;2.10;2.10;;;;;;;20.02;76.71;97134.53;4966468;28;20058;-63
2023/07/11 03:40:22;;;;;;;2.00;2.00;;;;;;;19.55;75.70;96998.88;4966215;28;20050;-62
2023/07/11 03:42:48;;;;;;;2.47;2.38;;;;;;;20.41;75.28;97098.03;4966494;28;20058;-61
2023/07/11 03:45:15;;;;;;;2.00;2.00;;;;;;;20.31;74.99;97096.22;4965404;28;20074;-62
2023/07/11 03:47:42;;;;;;;2.10;2.10;;;;;;;20.65;75.65;97110.78;4966220;28;20050;-62
2023/07/11 03:50:09;;;;;;;2.28;2.28;;;;;;;20.61;75.58;97098.03;4966218;28;20062;-63
2023/07/11 03:52:36;;;;;;;2.28;2.28;;;;;;;20.54;74.84;97039.06;4965913;28;20130;-63
2023/07/11 03:55:03;;;;;;;2.15;2.15;;;;;;;20.82;72.67;97058.13;4964176;28;20482;-62
2023/07/11 03:57:29;;;;;;;2.60;2.50;;;;;;;21.40;71.64;97130.44;4964516;28;20517;-62
2023/07/11 03:59:56;;;;;;;2.10;2.10;;;;;;;21.02;72.57;97084.25;4980384;28;20051;-63
2023/07/11 04:02:23;;;;;;;2.50;2.40;;;;;;;20.79;75.17;97154.72;4980757;28;20061;-62
2023/07/11 04:04:50;;;;;;;2.40;2.30;;;;;;;20.69;74.17;97074.13;4966007;28;20141;-62
2023/07/11 04:07:16;;;;;;;2.20;2.20;;;;;;;21.32;73.82;97137.47;4965848;28;20074;-65
2023/07/11 04:09:43;;;;;;;2.50;2.40;;;;;;;21.07;72.12;97068.84;4964370;28;20054;-62
2023/07/11 04:12:10;;;;;;;2.10;2.10;;;;;;;21.29;70.92;97087.63;4965274;28;20517;-62
2023/07/11 04:14:37;;;;;;;2.25;2.25;;;;;;;21.86;71.40;97140.59;4965392;28;20047;-63
2023/07/11 04:17:04;;;;;;;2.53;2.42;;;;;;;21.89;70.80;97137.66;4965611;28;20053;-63
2023/07/11 04:19:31;;;;;;;2.80;2.70;;;;;;;22.06;70.15;97136.44;4975771;28;20109;-62
2023/07/11 04:21:58;;;;;;;2.30;2.30;;;;;;;22.41;68.72;97112.84;4982996;28;20050;-65
2023/07/11 04:24:24;;;;;;;2.30;2.30;;;;;;;21.98;73.63;97146.31;4983454;28;20148;-63
2023/07/11 04:26:51;;;;;;;2.35;2.30;;;;;;;22.33;71.74;97148.19;4984802;28;20046;-62
2023/07/11 04:29:18;;;;;;;2.08;2.08;;;;;;;22.50;67.86;97109.38;4984589;28;20081;-62
2023/07/11 04:31:45;;;;;;;2.35;2.33;;;;;;;22.98;65.67;97117.69;4984865;28;20134;-62
2023/07/11 04:34:11;;;;;;;2.20;2.20;;;;;;;23.00;65.27;97086.13;4984558;28;20507;-64
2023/07/11 04:36:38;;;;;;;2.50;2.40;;;;;;;23.27;66.35;97066.69;4984704;28;20050;-63
2023/07/11 04:39:05;;;;;;;2.60;2.50;;;;;;;23.18;67.30;97114.63;4984449;28;20066;-62
2023/07/11 04:41:31;;;;;;;2.70;2.60;;;;;;;23.78;66.57;97153.09;4984217;28;20051;-64
2023/07/11 04:43:58;;;;;;;2.60;2.50;;;;;;;23.65;66.28;97087.25;4984509;28;20124;-62
2023/07/11 04:46:25;;;;;;;2.70;2.60;;;;;;;24.05;65.44;97110.97;4984531;28;20072;-63
2023/07/11 04:48:52;;;;;;;2.90;2.80;;;;;;;24.03;66.10;97090.81;4983231;28;20105;-63
2023/07/11 04:51:19;;;;;;;2.83;2.72;;;;;;;23.92;65.08;97047.13;4983107;28;20109;-65
2023/07/11 04:53:46;;;;;;;3.10;3.00;;;;;;;24.55;63.87;97126.97;4985059;28;20493;-62
2023/07/11 04:56:13;;;;;;;3.13;3.03;;;;;;;24.34;62.58;97074.72;4984272;28;20129;-61
2023/07/11 04:58:39;;;;;;;2.88;2.78;;;;;;;25.12;61.58;97152.72;4982884;28;20054;-62
2023/07/11 05:01:09;;;;;;;3.00;2.90;;;;;;;25.30;61.26;97144.34;4983852;28;20086;-62
2023/07/11 05:03:37;;;;;;;3.30;3.20;;;;;;;25.56;60.33;97149.84;4984725;28;20492;-61
2023/07/11 05:06:05;;;;;;;3.17;3.08;;;;;;;25.65;59.91;97158.38;4984328;28;20062;-63
2023/07/11 05:08:32;;;;;;;3.25;3.15;;;;;;;25.71;59.72;97156.50;4982972;28;20076;-64
2023/07/11 05:11:03;;;;;;;3.40;3.30;;;;;;;25.28;60.23;97067.44;4984593;28;20046;-62
2023/07/11 05:13:32;;;;;;;3.47;3.38;;;;;;;26.05;59.08;97170.53;4984663;28;20050;-61
2023/07/11 05:16:00;;;;;;;3.38;3.28;;;;;;;25.91;58.86;97142.69;4984595;28;20066;-62
2023/07/11 05:18:28;;;;;;;3.45;3.35;;;;;;;25.80;58.65;97131.00;4982877;28;20081;-61
2023/07/11 05:20:56;;;;;;;3.25;3.15;;;;;;;25.88;57.69;97143.63;4983061;28;20532;-62
2023/07/11 05:23:25;;;;;;;3.13;3.03;;;;;;;26.16;57.02;97154.59;4984466;28;20480;-64
2023/07/11 05:25:54;;;;;;;3.63;3.53;;;;;;;26.51;55.79;97167.28;4984513;28;20135;-62
2023/07/11 05:28:21;;;;;;;3.70;3.60;;;;;;;26.60;56.04;97160.81;4984517;28;20082;-62
2023/07/11 05:30:48;;;;;;;3.80;3.70;;;;;;;26.80;56.05;97172.53;4983811;28;20054;-63
2023/07/11 05:33:15;;;;;;;4.03;3.92;;;;;;;26.84;55.34;97164.63;4982809;28;20065;-61
2023/07/11 05:36:05;;;;;;;3.72;3.63;;;;;;;27.26;54.16;97164.69;4983863;28;20058;-62
2023/07/11 05:38:33;;;;;;;3.67;3.58;;;;;;;27.35;53.68;97170.38;4984192;28;20552;-64
2023/07/11 05:41:00;;;;;;;3.63;3.53;;;;;;;27.27;52.18;97152.88;4986521;28;20055;-61
2023/07/11 05:43:27;;;;;;;3.90;3.80;;;;;;;27.39;52.77;97162.50;4985991;28;20058;-63
2023/07/11 05:45:54;;;;;;;3.70;3.60;;;;;;;27.56;53.04;97170.19;4987697;28;20047;-63
2023/07/11 05:48:21;;;;;;;4.38;4.28;;;;;;;27.51;52.15;97130.97;4988079;28;20050;-62
2023/07/11 05:51:08;;;;;;;4.00;3.90;;;;;;;27.83;54.02;97155.84;4986557;28;20428;-62
2023/07/11 05:53:36;;;;;;;3.88;3.78;;;;;;;27.75;54.03;97128.97;4985720;28;20057;-65
2023/07/11 05:56:03;;;;;;;3.90;3.80;;;;;;;28.03;52.46;97164.63;4984851;28;20581;-73
2023/07/11 05:58:32;;;;;;;3.90;3.80;;;;;;;28.15;52.36;97165.66;4984013;28;20078;-66
2023/07/11 06:01:00;;;;;;;4.07;3.97;;;;;;;28.13;51.77;97169.00;4984887;28;20064;-66
2023/07/11 06:03:29;;;;;;;4.57;4.47;;;;;;;27.97;50.65;97115.28;4982659;28;20065;-71
2023/07/11 06:06:05;;;;;;;4.22;4.13;;;;;;;27.59;49.71;97049.66;4982970;28;20077;-70
2023/07/11 06:08:32;;;;;;;3.90;3.80;;;;;;;28.44;49.19;97147.91;4986196;28;20112;-69
2023/07/11 06:11:02;;;;;;;4.00;3.90;;;;;;;28.64;48.03;97119.56;4984134;28;20501;-71
2023/07/11 06:13:31;;;;;;;4.30;4.20;;;;;;;28.80;47.47;97147.63;4984623;28;20221;-71
2023/07/11 06:16:18;;;;;;;4.20;4.10;;;;;;;28.87;46.67;97148.03;4984573;28;20059;-63
2023/07/11 06:18:47;;;;;;;4.45;4.35;;;;;;;28.83;46.11;97130.34;4985701;28;20085;-75
2023/07/11 06:21:14;;;;;;;4.35;4.25;;;;;;;29.11;46.85;97150.84;4981280;28;20134;-72
2023/07/11 06:23:41;;;;;;;4.47;4.38;;;;;;;28.49;48.86;97018.97;4985971;28;20109;-65
2023/07/11 06:26:09;;;;;;;4.07;3.97;;;;;;;29.22;49.45;97108.22;4976981;28;20047;-61
2023/07/11 06:28:36;;;;;;;4.47;4.38;;;;;;;29.69;50.26;97145.13;4977464;28;20897;-64
2023/07/11 06:31:05;;;;;;;4.47;4.38;;;;;;;29.09;50.20;97064.94;4979641;28;20133;-65
2023/07/11 06:33:34;;;;;;;4.40;4.30;;;;;;;29.31;43.62;97096.69;4982235;28;20112;-66
2023/07/11 06:36:05;;;;;;;4.68;4.57;;;;;;;29.15;42.25;97069.47;4981608;28;20082;-69
2023/07/11 06:38:32;;;;;;;4.53;4.43;;;;;;;29.78;41.84;97149.94;4985330;28;20173;-65
2023/07/11 06:40:59;;;;;;;4.47;4.38;;;;;;;29.20;41.50;97045.16;4983099;28;20056;-62
2023/07/11 06:43:27;;;;;;;4.18;4.07;;;;;;;29.54;41.09;97124.34;4985524;28;20078;-60
2023/07/11 06:45:56;;;;;;;4.40;4.30;;;;;;;29.79;41.11;97140.88;4984881;28;20134;-62
2023/07/11 06:48:25;;;;;;;4.53;4.43;;;;;;;29.37;41.48;97066.22;4984384;28;20054;-73
2023/07/11 06:50:54;;;;;;;4.03;3.92;;;;;;;29.84;40.69;97119.38;4982604;28;20517;-63
2023/07/11 06:53:23;;;;;;;4.55;4.45;;;;;;;30.09;39.83;97133.81;4983997;28;20058;-73
2023/07/11 06:55:51;;;;;;;4.28;4.18;;;;;;;29.62;40.01;97059.84;4984540;28;20163;-69
2023/07/11 06:58:19;;;;;;;4.47;4.38;;;;;;;29.49;40.31;97050.81;4981086;28;20354;-64
2023/07/11 07:00:53;;;;;;;4.05;3.95;;;;;;;29.97;39.87;97131.28;4981131;28;20058;-71
2023/07/11 07:03:20;;;;;;;4.90;4.80;;;;;;;29.88;39.48;97135.03;4983258;28;20058;-73
2023/07/11 07:06:11;;;;;;;4.30;4.20;;;;;;;29.00;39.54;97002.25;4982152;28;20046;-69
2023/07/11 07:08:39;;;;;;;4.50;4.40;;;;;;;29.77;40.01;97109.16;4983564;28;20472;-68
2023/07/11 07:11:06;;;;;;;4.60;4.50;;;;;;;30.01;39.17;97149.78;4984198;28;20065;-74
2023/07/11 07:13:33;;;;;;;4.70;4.60;;;;;;;29.76;39.31;97081.88;4985908;28;20138;-68
2023/07/11 07:16:04;;;;;;;4.15;4.05;;;;;;;30.11;40.07;97122.66;4986224;28;20402;-62
2023/07/11 07:18:36;;;;;;;4.43;4.32;;;;;;;30.12;38.69;97112.78;4985336;28;20051;-74
2023/07/11 07:21:04;;;;;;;4.47;4.38;;;;;;;29.95;38.82;97088.91;4983810;28;20535;-64
2023/07/11 07:23:33;;;;;;;4.88;4.78;;;;;;;30.19;38.37;97080.16;4978392;28;20065;-71
2023/07/11 07:26:02;;;;;;;4.75;4.65;;;;;;;30.56;38.31;97115.47;4985286;28;20104;-72
2023/07/11 07:28:31;;;;;;;4.72;4.63;;;;;;;30.84;38.58;97114.53;4984501;28;20050;-68
2023/07/11 07:30:59;;;;;;;5.07;4.97;;;;;;;30.85;38.43;97098.94;4984733;28;20054;-64
2023/07/11 07:33:26;;;;;;;4.60;4.50;;;;;;;31.04;38.38;97110.06;4984486;28;20064;-62
2023/07/11 07:36:01;;;;;;;4.88;4.78;;;;;;;31.05;38.25;97111.63;4984293;28;20109;-72
2023/07/11 07:38:28;;;;;;;4.60;4.50;;;;;;;30.60;37.84;97028.16;4983521;28;20461;-71
2023/07/11 07:40:58;;;;;;;4.68;4.57;;;;;;;31.18;37.47;97097.69;4984304;28;20054;-76
2023/07/11 07:43:27;;;;;;;4.90;4.80;;;;;;;31.00;38.73;97075.94;4985051;28;20069;-69
2023/07/11 07:45:57;;;;;;;4.75;4.65;;;;;;;31.17;38.52;97099.00;4985511;28;20050;-64
2023/07/11 07:48:25;;;;;;;4.70;4.60;;;;;;;30.95;38.66;97086.03;4984590;28;20457;-63
2023/07/11 07:50:52;;;;;;;4.97;4.88;;;;;;;30.81;38.41;97078.34;4984450;28;20071;-71
2023/07/11 07:53:19;;;;;;;4.40;4.30;;;;;;;30.21;38.91;96986.91;4983429;28;20046;-75
2023/07/11 07:55:46;;;;;;;4.53;4.43;;;;;;;30.76;39.33;97084.78;4983419;28;20049;-66
2023/07/11 07:58:14;;;;;;;4.63;4.53;;;;;;;30.80;39.20;97033.88;4979483;28;20058;-73
2023/07/11 08:00:56;;;;;;;4.47;4.38;;;;;;;31.20;38.94;97100.84;4964044;28;20073;-69
2023/07/11 08:03:22;;;;;;;4.70;4.60;;;;;;;30.91;38.90;97045.41;4978041;28;20064;-66
2023/07/11 08:05:49;;;;;;;4.60;4.50;;;;;;;31.69;38.81;97104.16;4984882;28;20157;-62
2023/07/11 08:08:35;;;;;;;5.05;4.95;;;;;;;31.05;39.18;97026.53;4985196;28;20050;-70
2023/07/11 08:11:04;;;;;;;4.57;4.47;;;;;;;31.17;39.39;97061.78;4983359;28;20077;-70
2023/07/11 08:13:31;;;;;;;5.20;5.10;;;;;;;31.39;38.78;97113.53;4991387;28;20054;-69
2023/07/11 08:16:15;;;;;;;4.70;4.60;;;;;;;30.96;38.34;97081.09;4984744;28;20112;-66
2023/07/11 08:18:57;;;;;;;;;;;;;;;31.20;38.71;97123.75;4983509;28;20129;-62
2023/07/11 08:21:24;;;;;;;4.30;4.20;;;;;;;31.19;38.45;97116.47;4982689;28;20025;-70
2023/07/11 08:23:51;;;;;;;4.72;4.63;;;;;;;31.47;38.21;97114.66;4983949;28;20473;-65
2023/07/11 08:26:21;;;;;;;4.90;4.80;;;;;;;31.55;38.55;97098.59;4981981;28;20053;-74
2023/07/11 08:28:51;;;;;;;4.30;4.20;;;;;;;31.41;38.23;97100.28;4979791;28;20604;-68
2023/07/11 08:31:18;;;;;;;4.55;4.45;;;;;;;31.69;38.10;97103.38;4984718;28;20823;-71
2023/07/11 08:33:45;;;;;;;5.10;5.00;;;;;;;31.34;38.08;97042.69;4966827;28;20125;-68
2023/07/11 08:36:12;;;;;;;4.93;4.82;;;;;;;31.79;38.50;97078.97;4982870;28;20129;-70
2023/07/11 08:38:39;;;;;;;4.40;4.30;;;;;;;32.07;37.38;97082.81;4982677;28;20061;-69
2023/07/11 08:41:41;;;;;;;4.90;4.80;;;;;;;32.30;37.59;97101.69;4981100;28;20050;-64
2023/07/11 08:44:16;;;;;;;5.05;4.95;;;;;;;31.20;38.29;97003.50;4978123;28;20046;-67
2023/07/11 08:46:53;;;;;;;4.80;4.70;;;;;;;31.39;38.30;97033.34;4978747;28;20061;-66
2023/07/11 08:49:42;;;;;;;4.70;4.60;;;;;;;31.92;38.59;97079.31;4964997;28;20105;-70
2023/07/11 08:52:10;;;;;;;4.25;4.15;;;;;;;32.02;36.97;97103.63;4964393;28;20113;-65
2023/07/11 08:54:54;;;;;;;4.72;4.63;;;;;;;31.73;37.88;97098.19;4965465;28;20121;-72
2023/07/11 08:57:23;;;;;;;4.90;4.80;;;;;;;31.68;37.04;97093.22;4963580;28;20043;-70
2023/07/11 09:00:16;;;;;;;4.82;4.72;;;;;;;31.82;36.55;97095.91;4963195;28;20057;-70
2023/07/11 09:02:43;;;;;;;4.72;4.63;;;;;;;31.84;37.08;97095.41;4964546;28;20064;-70
2023/07/11 09:05:17;;;;;;;5.05;4.95;;;;;;;31.99;37.04;97101.78;4964501;28;20097;-67
2023/07/11 09:07:44;;;;;;;4.88;4.78;;;;;;;31.49;35.96;97008.97;4981184;28;20591;-70
2023/07/11 09:10:27;;;;;;;4.80;4.70;;;;;;;32.29;36.83;97089.47;4984253;28;20050;-70
2023/07/11 09:13:27;;;;;;;5.10;5.00;;;;;;;32.21;36.39;97093.31;4982968;28;20149;-66
2023/07/11 09:16:03;;;;;;;5.10;5.00;;;;;;;31.98;36.88;97028.56;4986089;28;20157;-63
2023/07/11 09:19:02;;;;;;;5.07;4.97;;;;;;;32.34;36.67;97096.50;4988339;28;20425;-72
2023/07/11 09:21:46;;;;;;;4.72;4.63;;;;;;;32.03;36.46;97042.91;4987851;28;20047;-71
2023/07/11 09:24:36;;;;;;;4.53;4.43;;;;;;;32.06;38.19;97072.63;4986558;28;20056;-65
2023/07/11 09:27:16;;;;;;;4.85;4.75;;;;;;;32.12;37.97;97047.66;4987775;28;20528;-65
2023/07/11 09:29:45;;;;;;;4.50;4.40;;;;;;;32.66;36.53;97077.88;4986566;28;20046;-70
2023/07/11 09:32:13;;;;;;;4.82;4.72;;;;;;;32.45;36.66;97067.13;4987465;28;20133;-65
2023/07/11 09:34:49;;;;;;;4.75;4.65;;;;;;;32.49;36.18;97039.75;4987646;28;20461;-70
2023/07/11 09:37:32;;;;;;;4.93;4.82;;;;;;;32.39;36.19;97049.88;4987859;28;20065;-65
2023/07/11 09:40:19;;;;;;;5.45;5.35;;;;;;;32.17;35.32;97018.22;4987453;28;20054;-71
2023/07/11 09:42:55;;;;;;;4.55;4.45;;;;;;;32.44;35.92;97020.44;4987821;28;20054;-70
2023/07/11 09:45:48;;;;;;;4.90;4.80;;;;;;;32.91;35.85;97082.66;4986252;28;20173;-64
2023/07/11 09:48:19;;;;;;;5.03;4.93;;;;;;;32.84;35.50;97048.72;4986493;28;20062;-64
2023/07/11 09:51:01;;;;;;;4.57;4.47;;;;;;;33.33;35.51;97073.06;4986151;28;20536;-66
2023/07/11 09:53:44;;;;;;;4.70;4.60;;;;;;;33.36;35.96;97049.84;4987862;28;20137;-71
2023/07/11 09:56:15;;;;;;;4.90;4.80;;;;;;;33.37;35.40;97062.88;4987319;28;20050;-64
2023/07/11 09:59:00;;;;;;;4.97;4.88;;;;;;;32.16;35.84;97028.13;4987793;28;20594;-64
2023/07/11 10:01:32;;;;;;;5.05;4.95;;;;;;;32.55;35.75;96999.63;4987296;28;20050;-64
2023/07/11 10:04:00;;;;;;;5.30;5.20;;;;;;;32.69;34.20;97021.56;4987625;28;20058;-64
2023/07/11 10:06:44;;;;;;;4.90;4.80;;;;;;;33.19;35.78;97074.09;4987173;28;20135;-70
2023/07/11 10:09:17;;;;;;;4.78;4.68;;;;;;;33.36;35.25;97069.94;4987257;28;20113;-70
2023/07/11 10:11:51;;;;;;;5.38;5.28;;;;;;;32.97;34.97;96974.38;4987563;28;20054;-65
2023/07/11 10:14:20;;;;;;;4.88;4.78;;;;;;;33.20;34.96;96990.31;4985863;28;20133;-67
2023/07/11 10:16:47;;;;;;;4.60;4.50;;;;;;;33.87;33.30;97053.47;4987103;28;20125;-71
2023/07/11 10:19:18;;;;;;;5.15;5.05;;;;;;;33.91;33.56;97059.75;4985913;28;20156;-71
2023/07/11 10:21:48;;;;;;;5.05;4.95;;;;;;;33.34;33.80;96976.97;4986498;28;20136;-73
2023/07/11 10:24:22;;;;;;;5.20;5.10;;;;;;;32.93;34.75;96936.53;4983264;28;20440;-75
2023/07/11 10:26:56;;;;;;;5.28;5.18;;;;;;;34.05;34.34;97056.56;4982957;28;20058;-72
2023/07/11 10:29:27;;;;;;;4.93;4.82;;;;;;;33.69;33.37;96943.50;4978641;28;20155;-69
2023/07/11 10:32:02;;;;;;;5.35;5.25;;;;;;;34.42;33.86;97053.34;4985783;28;20054;-69
2023/07/11 10:34:47;;;;;;;4.95;4.85;;;;;;;34.41;32.80;97054.66;4983936;28;20052;-67
2023/07/11 10:37:27;;;;;;;5.22;5.13;;;;;;;34.51;32.60;97045.19;4965520;28;20055;-67
2023/07/11 10:40:20;;;;;;;5.38;5.28;;;;;;;33.93;33.27;96988.91;4980858;28;20062;-69
2023/07/11 10:43:10;;;;;;;5.03;4.93;;;;;;;34.04;33.23;97034.09;4983491;28;20058;-63
2023/07/11 10:45:47;;;;;;;5.00;4.90;;;;;;;34.19;34.44;97028.81;4978525;28;20049;-70
2023/07/11 10:48:32;;;;;;;5.50;5.35;;;;;;;34.35;33.17;97042.38;4967415;28;20137;-63
2023/07/11 10:51:03;;;;;;;5.22;5.13;;;;;;;33.96;32.99;96978.44;4966891;28;20478;-68
2023/07/11 10:53:43;;;;;;;5.32;5.22;;;;;;;34.45;33.10;97035.00;4984409;28;20137;-69
2023/07/11 10:56:25;;;;;;;4.57;4.47;;;;;;;34.36;33.00;97032.41;4985146;28;20046;-64
2023/07/11 10:58:53;;;;;;;5.03;4.93;;;;;;;33.97;34.45;97023.16;4983081;28;20387;-69
2023/07/11 11:01:23;;;;;;;4.75;4.65;;;;;;;34.34;33.61;97023.53;4983889;28;20050;-67
2023/07/11 11:03:55;;;;;;;5.22;5.13;;;;;;;34.57;33.61;97030.78;4981146;28;20058;-62
2023/07/11 11:06:45;;;;;;;4.85;4.75;;;;;;;34.13;32.52;96979.19;4984613;28;20104;-63
2023/07/11 11:09:25;;;;;;;4.70;4.60;;;;;;;34.40;33.32;96996.31;4983343;28;20050;-70
2023/07/11 11:12:10;;;;;;;5.38;5.28;;;;;;;34.86;32.50;97012.78;4982996;28;20046;-73
2023/07/11 11:14:46;;;;;;;5.10;5.00;;;;;;;35.14;31.91;97030.72;4977840;28;20096;-62
2023/07/11 11:17:15;;;;;;;5.22;5.13;;;;;;;35.28;32.53;97035.31;4982924;28;20047;-73
2023/07/11 11:19:58;;;;;;;5.32;5.22;;;;;;;35.27;32.23;97036.59;4984607;28;20125;-64
2023/07/11 11:22:37;;;;;;;5.47;5.35;;;;;;;35.08;31.97;97027.84;4985330;28;20411;-72
2023/07/11 11:25:32;;;;;;;5.38;5.28;;;;;;;34.88;32.77;96987.94;4972861;28;20047;-70
2023/07/11 11:28:09;;;;;;;5.18;5.07;;;;;;;34.10;33.25;96906.22;4979407;28;20064;-63
2023/07/11 11:30:55;;;;;;;5.10;5.00;;;;;;;33.89;31.91;96841.78;4984062;28;20449;-70
2023/07/11 11:33:38;;;;;;;4.78;4.68;;;;;;;34.88;33.12;97016.75;4983568;28;20108;-66
2023/07/11 11:36:31;;;;;;;5.05;4.95;;;;;;;34.89;32.83;97024.06;4982272;28;20433;-64
2023/07/11 11:39:27;;;;;;;5.10;5.00;;;;;;;34.63;33.41;97034.41;4976546;28;20054;-65
2023/07/11 11:41:58;;;;;;;4.93;4.82;;;;;;;34.64;32.85;97024.44;4998907;28;20058;-63
2023/07/11 11:44:46;;;;;;;4.93;4.82;;;;;;;34.75;32.96;97024.38;4981123;28;20058;-60
2023/07/11 11:47:17;;;;;;;5.25;5.15;;;;;;;34.42;32.58;96973.56;4976443;28;20062;-68
2023/07/11 11:49:49;;;;;;;5.00;4.90;;;;;;;34.66;32.36;97018.94;4981570;28;20050;-63
2023/07/11 11:52:22;;;;;;;4.70;4.60;;;;;;;34.49;32.65;97018.25;4983125;28;20057;-69